sensor_id;sensor_type;location;lat;lon;timestamp;P1;durP1;ratioP1;P2;durP2;ratioP2
11131;SDS011;5620;53.570;9.718;2022-12-07T00:01:14;9.93;;;5.45;;
11131;SDS011;5620;53.570;9.718;2022-12-07T00:03:51;14.07;;;5.05;;
11131;SDS011;5620;53.570;9.718;2022-12-07T00:06:20;8.98;;;5.35;;
11131;SDS011;5620;53.570;9.718;2022-12-07T00:08:46;6.20;;;4.97;;
11131;SDS011;5620;53.570;9.718;2022-12-07T00:11:15;5.20;;;4.57;;
11131;SDS011;5620;53.570;9.718;2022-12-07T00:13:42;5.22;;;4.82;;
11131;SDS011;5620;53.570;9.718;2022-12-07T00:16:10;5.63;;;4.43;;
11131;SDS011;5620;53.570;9.718;2022-12-07T00:18:40;5.22;;;4.72;;
11131;SDS011;5620;53.570;9.718;2022-12-07T00:21:29;5.10;;;4.57;;
11131;SDS011;5620;53.570;9.718;2022-12-07T00:23:55;5.07;;;4.57;;
11131;SDS011;5620;53.570;9.718;2022-12-07T00:26:23;4.90;;;4.20;;
11131;SDS011;5620;53.570;9.718;2022-12-07T00:28:56;4.68;;;3.83;;
11131;SDS011;5620;53.570;9.718;2022-12-07T00:31:27;5.55;;;5.03;;
11131;SDS011;5620;53.570;9.718;2022-12-07T00:33:55;5.07;;;4.68;;
11131;SDS011;5620;53.570;9.718;2022-12-07T00:36:23;4.63;;;4.23;;
11131;SDS011;5620;53.570;9.718;2022-12-07T00:38:49;7.60;;;4.43;;
11131;SDS011;5620;53.570;9.718;2022-12-07T00:41:19;6.55;;;4.03;;
11131;SDS011;5620;53.570;9.718;2022-12-07T00:43:49;4.05;;;3.78;;
11131;SDS011;5620;53.570;9.718;2022-12-07T00:46:17;5.37;;;4.97;;
11131;SDS011;5620;53.570;9.718;2022-12-07T00:48:43;5.20;;;3.78;;
11131;SDS011;5620;53.570;9.718;2022-12-07T00:51:10;5.18;;;4.53;;
11131;SDS011;5620;53.570;9.718;2022-12-07T00:53:38;3.47;;;3.17;;
11131;SDS011;5620;53.570;9.718;2022-12-07T00:56:07;3.83;;;3.45;;
11131;SDS011;5620;53.570;9.718;2022-12-07T00:58:40;5.17;;;4.40;;
11131;SDS011;5620;53.570;9.718;2022-12-07T01:01:08;6.15;;;3.13;;
11131;SDS011;5620;53.570;9.718;2022-12-07T01:03:37;3.97;;;3.67;;
11131;SDS011;5620;53.570;9.718;2022-12-07T01:06:06;5.70;;;3.10;;
11131;SDS011;5620;53.570;9.718;2022-12-07T01:08:34;5.13;;;3.97;;
11131;SDS011;5620;53.570;9.718;2022-12-07T01:11:05;4.60;;;4.10;;
11131;SDS011;5620;53.570;9.718;2022-12-07T01:13:34;3.05;;;2.85;;
11131;SDS011;5620;53.570;9.718;2022-12-07T01:16:01;6.07;;;3.35;;
11131;SDS011;5620;53.570;9.718;2022-12-07T01:18:30;4.88;;;4.25;;
11131;SDS011;5620;53.570;9.718;2022-12-07T01:21:07;4.35;;;3.00;;
11131;SDS011;5620;53.570;9.718;2022-12-07T01:23:36;5.30;;;3.17;;
11131;SDS011;5620;53.570;9.718;2022-12-07T01:26:04;4.38;;;3.40;;
11131;SDS011;5620;53.570;9.718;2022-12-07T01:28:43;6.00;;;3.45;;
11131;SDS011;5620;53.570;9.718;2022-12-07T01:31:12;5.15;;;3.00;;
11131;SDS011;5620;53.570;9.718;2022-12-07T01:33:42;4.88;;;4.38;;
11131;SDS011;5620;53.570;9.718;2022-12-07T01:36:22;6.60;;;4.20;;
11131;SDS011;5620;53.570;9.718;2022-12-07T01:39:07;6.55;;;3.78;;
11131;SDS011;5620;53.570;9.718;2022-12-07T01:41:35;7.22;;;4.45;;
11131;SDS011;5620;53.570;9.718;2022-12-07T01:52:39;3.75;;;3.42;;
11131;SDS011;5620;53.570;9.718;2022-12-07T01:55:07;3.53;;;3.33;;
11131;SDS011;5620;53.570;9.718;2022-12-07T01:57:39;3.13;;;2.92;;
11131;SDS011;5620;53.570;9.718;2022-12-07T02:00:11;6.32;;;4.03;;
11131;SDS011;5620;53.570;9.718;2022-12-07T02:02:51;4.40;;;2.87;;
11131;SDS011;5620;53.570;9.718;2022-12-07T02:05:34;5.28;;;2.88;;
11131;SDS011;5620;53.570;9.718;2022-12-07T02:08:01;2.83;;;2.63;;
11131;SDS011;5620;53.570;9.718;2022-12-07T02:10:30;3.92;;;3.63;;
11131;SDS011;5620;53.570;9.718;2022-12-07T02:21:48;6.22;;;3.10;;
11131;SDS011;5620;53.570;9.718;2022-12-07T02:30:12;2.00;;;1.80;;
11131;SDS011;5620;53.570;9.718;2022-12-07T02:32:44;8.43;;;1.83;;
11131;SDS011;5620;53.570;9.718;2022-12-07T02:40:48;2.63;;;2.15;;
11131;SDS011;5620;53.570;9.718;2022-12-07T02:43:33;2.57;;;1.83;;
11131;SDS011;5620;53.570;9.718;2022-12-07T02:46:20;8.48;;;2.45;;
11131;SDS011;5620;53.570;9.718;2022-12-07T02:48:50;4.07;;;1.65;;
11131;SDS011;5620;53.570;9.718;2022-12-07T02:51:18;1.73;;;1.63;;
11131;SDS011;5620;53.570;9.718;2022-12-07T02:53:44;5.88;;;1.77;;
11131;SDS011;5620;53.570;9.718;2022-12-07T03:11:08;4.38;;;1.67;;
11131;SDS011;5620;53.570;9.718;2022-12-07T03:13:59;1.90;;;1.20;;
11131;SDS011;5620;53.570;9.718;2022-12-07T03:16:33;2.17;;;1.50;;
11131;SDS011;5620;53.570;9.718;2022-12-07T03:19:08;3.92;;;1.30;;
11131;SDS011;5620;53.570;9.718;2022-12-07T03:21:42;4.60;;;0.80;;
11131;SDS011;5620;53.570;9.718;2022-12-07T03:24:33;1.10;;;1.00;;
11131;SDS011;5620;53.570;9.718;2022-12-07T03:27:09;4.50;;;1.38;;
11131;SDS011;5620;53.570;9.718;2022-12-07T03:32:35;1.48;;;1.27;;
11131;SDS011;5620;53.570;9.718;2022-12-07T03:35:29;2.10;;;1.00;;
11131;SDS011;5620;53.570;9.718;2022-12-07T03:41:00;1.23;;;1.13;;
11131;SDS011;5620;53.570;9.718;2022-12-07T03:43:34;0.93;;;0.70;;
11131;SDS011;5620;53.570;9.718;2022-12-07T03:48:38;1.20;;;0.70;;
11131;SDS011;5620;53.570;9.718;2022-12-07T03:54:26;2.15;;;0.95;;
11131;SDS011;5620;53.570;9.718;2022-12-07T03:57:02;1.90;;;0.95;;
11131;SDS011;5620;53.570;9.718;2022-12-07T03:59:30;3.72;;;1.38;;
11131;SDS011;5620;53.570;9.718;2022-12-07T04:02:07;0.93;;;0.80;;
11131;SDS011;5620;53.570;9.718;2022-12-07T04:04:37;1.48;;;1.10;;
11131;SDS011;5620;53.570;9.718;2022-12-07T04:07:08;5.07;;;1.17;;
11131;SDS011;5620;53.570;9.718;2022-12-07T04:09:35;4.28;;;1.20;;
11131;SDS011;5620;53.570;9.718;2022-12-07T04:12:01;3.23;;;1.33;;
11131;SDS011;5620;53.570;9.718;2022-12-07T04:14:27;3.75;;;1.35;;
11131;SDS011;5620;53.570;9.718;2022-12-07T04:16:56;2.95;;;1.55;;
11131;SDS011;5620;53.570;9.718;2022-12-07T04:19:26;6.85;;;1.83;;
11131;SDS011;5620;53.570;9.718;2022-12-07T04:21:54;2.47;;;0.90;;
11131;SDS011;5620;53.570;9.718;2022-12-07T04:24:22;1.23;;;1.05;;
11131;SDS011;5620;53.570;9.718;2022-12-07T04:26:48;2.20;;;1.45;;
11131;SDS011;5620;53.570;9.718;2022-12-07T04:29:15;1.10;;;1.10;;
11131;SDS011;5620;53.570;9.718;2022-12-07T04:31:44;2.25;;;1.40;;
11131;SDS011;5620;53.570;9.718;2022-12-07T04:34:12;4.72;;;1.40;;
11131;SDS011;5620;53.570;9.718;2022-12-07T04:36:39;1.08;;;1.08;;
11131;SDS011;5620;53.570;9.718;2022-12-07T04:39:06;1.35;;;1.10;;
11131;SDS011;5620;53.570;9.718;2022-12-07T04:41:34;1.17;;;1.00;;
11131;SDS011;5620;53.570;9.718;2022-12-07T04:44:01;3.33;;;1.15;;
11131;SDS011;5620;53.570;9.718;2022-12-07T04:46:30;3.53;;;1.20;;
11131;SDS011;5620;53.570;9.718;2022-12-07T04:49:01;2.30;;;1.52;;
11131;SDS011;5620;53.570;9.718;2022-12-07T04:51:27;7.35;;;2.25;;
11131;SDS011;5620;53.570;9.718;2022-12-07T04:53:55;1.70;;;1.10;;
11131;SDS011;5620;53.570;9.718;2022-12-07T04:56:21;1.85;;;1.20;;
11131;SDS011;5620;53.570;9.718;2022-12-07T04:58:50;2.67;;;1.75;;
11131;SDS011;5620;53.570;9.718;2022-12-07T05:01:17;5.82;;;1.45;;
11131;SDS011;5620;53.570;9.718;2022-12-07T05:03:44;1.43;;;1.33;;
11131;SDS011;5620;53.570;9.718;2022-12-07T05:06:11;1.98;;;1.17;;
11131;SDS011;5620;53.570;9.718;2022-12-07T05:08:38;1.33;;;1.23;;
11131;SDS011;5620;53.570;9.718;2022-12-07T05:11:05;1.48;;;1.33;;
11131;SDS011;5620;53.570;9.718;2022-12-07T05:13:33;2.83;;;1.98;;
11131;SDS011;5620;53.570;9.718;2022-12-07T05:16:01;3.33;;;1.47;;
11131;SDS011;5620;53.570;9.718;2022-12-07T05:18:28;1.38;;;1.27;;
11131;SDS011;5620;53.570;9.718;2022-12-07T05:20:54;1.50;;;1.40;;
11131;SDS011;5620;53.570;9.718;2022-12-07T05:23:21;1.35;;;1.25;;
11131;SDS011;5620;53.570;9.718;2022-12-07T05:25:49;1.10;;;1.10;;
11131;SDS011;5620;53.570;9.718;2022-12-07T05:28:16;2.13;;;1.67;;
11131;SDS011;5620;53.570;9.718;2022-12-07T05:30:44;1.73;;;1.25;;
11131;SDS011;5620;53.570;9.718;2022-12-07T05:33:12;4.07;;;1.60;;
11131;SDS011;5620;53.570;9.718;2022-12-07T05:35:38;2.55;;;1.42;;
11131;SDS011;5620;53.570;9.718;2022-12-07T05:38:05;2.58;;;1.63;;
11131;SDS011;5620;53.570;9.718;2022-12-07T05:40:31;1.17;;;0.73;;
11131;SDS011;5620;53.570;9.718;2022-12-07T05:42:56;1.40;;;1.30;;
11131;SDS011;5620;53.570;9.718;2022-12-07T05:45:22;4.03;;;1.30;;
11131;SDS011;5620;53.570;9.718;2022-12-07T05:47:49;1.20;;;1.10;;
11131;SDS011;5620;53.570;9.718;2022-12-07T05:50:16;1.70;;;0.93;;
11131;SDS011;5620;53.570;9.718;2022-12-07T05:52:44;24.13;;;11.32;;
11131;SDS011;5620;53.570;9.718;2022-12-07T05:55:10;6.43;;;3.47;;
11131;SDS011;5620;53.570;9.718;2022-12-07T05:57:36;9.23;;;1.93;;
11131;SDS011;5620;53.570;9.718;2022-12-07T06:00:02;5.57;;;1.92;;
11131;SDS011;5620;53.570;9.718;2022-12-07T06:02:31;1.38;;;1.27;;
11131;SDS011;5620;53.570;9.718;2022-12-07T06:04:56;2.97;;;1.13;;
11131;SDS011;5620;53.570;9.718;2022-12-07T06:07:23;1.63;;;1.27;;
11131;SDS011;5620;53.570;9.718;2022-12-07T06:09:49;1.37;;;1.27;;
11131;SDS011;5620;53.570;9.718;2022-12-07T06:12:14;4.88;;;1.20;;
11131;SDS011;5620;53.570;9.718;2022-12-07T06:14:40;2.53;;;2.33;;
11131;SDS011;5620;53.570;9.718;2022-12-07T06:17:07;4.50;;;1.60;;
11131;SDS011;5620;53.570;9.718;2022-12-07T06:19:34;4.23;;;1.67;;
11131;SDS011;5620;53.570;9.718;2022-12-07T06:21:59;1.23;;;0.90;;
11131;SDS011;5620;53.570;9.718;2022-12-07T06:24:26;2.28;;;1.20;;
11131;SDS011;5620;53.570;9.718;2022-12-07T06:26:53;4.90;;;1.73;;
11131;SDS011;5620;53.570;9.718;2022-12-07T06:29:19;3.03;;;1.75;;
11131;SDS011;5620;53.570;9.718;2022-12-07T06:31:45;6.47;;;2.60;;
11131;SDS011;5620;53.570;9.718;2022-12-07T06:34:13;6.40;;;2.27;;
11131;SDS011;5620;53.570;9.718;2022-12-07T06:36:40;4.53;;;1.73;;
11131;SDS011;5620;53.570;9.718;2022-12-07T06:39:07;5.05;;;2.35;;
11131;SDS011;5620;53.570;9.718;2022-12-07T06:41:33;4.73;;;1.47;;
11131;SDS011;5620;53.570;9.718;2022-12-07T06:44:01;4.63;;;2.30;;
11131;SDS011;5620;53.570;9.718;2022-12-07T06:46:29;5.60;;;1.30;;
11131;SDS011;5620;53.570;9.718;2022-12-07T06:48:56;2.13;;;0.93;;
11131;SDS011;5620;53.570;9.718;2022-12-07T06:51:21;2.60;;;1.23;;
11131;SDS011;5620;53.570;9.718;2022-12-07T06:53:48;3.72;;;1.52;;
11131;SDS011;5620;53.570;9.718;2022-12-07T06:56:14;2.70;;;1.57;;
11131;SDS011;5620;53.570;9.718;2022-12-07T06:58:41;2.40;;;1.33;;
11131;SDS011;5620;53.570;9.718;2022-12-07T07:01:11;1.23;;;1.10;;
11131;SDS011;5620;53.570;9.718;2022-12-07T07:03:42;0.88;;;0.80;;
11131;SDS011;5620;53.570;9.718;2022-12-07T07:06:10;2.80;;;2.38;;
11131;SDS011;5620;53.570;9.718;2022-12-07T07:08:36;5.40;;;2.67;;
11131;SDS011;5620;53.570;9.718;2022-12-07T07:11:03;4.20;;;2.28;;
11131;SDS011;5620;53.570;9.718;2022-12-07T07:13:28;3.67;;;2.85;;
11131;SDS011;5620;53.570;9.718;2022-12-07T07:15:55;3.33;;;1.17;;
11131;SDS011;5620;53.570;9.718;2022-12-07T07:18:23;5.28;;;1.27;;
11131;SDS011;5620;53.570;9.718;2022-12-07T07:20:51;2.88;;;1.30;;
11131;SDS011;5620;53.570;9.718;2022-12-07T07:23:19;1.75;;;1.20;;
11131;SDS011;5620;53.570;9.718;2022-12-07T07:25:46;1.98;;;1.77;;
11131;SDS011;5620;53.570;9.718;2022-12-07T07:28:14;2.00;;;1.50;;
11131;SDS011;5620;53.570;9.718;2022-12-07T07:30:41;1.55;;;0.88;;
11131;SDS011;5620;53.570;9.718;2022-12-07T07:33:09;2.10;;;1.70;;
11131;SDS011;5620;53.570;9.718;2022-12-07T07:35:38;1.58;;;1.48;;
11131;SDS011;5620;53.570;9.718;2022-12-07T07:38:06;11.02;;;4.50;;
11131;SDS011;5620;53.570;9.718;2022-12-07T07:40:33;3.10;;;2.40;;
11131;SDS011;5620;53.570;9.718;2022-12-07T07:43:00;5.85;;;1.63;;
11131;SDS011;5620;53.570;9.718;2022-12-07T07:45:26;7.45;;;3.25;;
11131;SDS011;5620;53.570;9.718;2022-12-07T07:47:53;5.17;;;1.63;;
11131;SDS011;5620;53.570;9.718;2022-12-07T07:50:18;2.63;;;2.00;;
11131;SDS011;5620;53.570;9.718;2022-12-07T07:52:44;5.50;;;2.00;;
11131;SDS011;5620;53.570;9.718;2022-12-07T07:55:12;3.30;;;2.07;;
11131;SDS011;5620;53.570;9.718;2022-12-07T07:57:41;5.85;;;1.80;;
11131;SDS011;5620;53.570;9.718;2022-12-07T08:00:08;5.15;;;1.50;;
11131;SDS011;5620;53.570;9.718;2022-12-07T08:02:39;2.55;;;1.70;;
11131;SDS011;5620;53.570;9.718;2022-12-07T08:05:07;3.05;;;1.30;;
11131;SDS011;5620;53.570;9.718;2022-12-07T08:07:35;1.63;;;1.37;;
11131;SDS011;5620;53.570;9.718;2022-12-07T08:10:02;1.60;;;1.38;;
11131;SDS011;5620;53.570;9.718;2022-12-07T08:12:30;4.53;;;1.27;;
11131;SDS011;5620;53.570;9.718;2022-12-07T08:14:57;2.13;;;1.00;;
11131;SDS011;5620;53.570;9.718;2022-12-07T08:17:23;12.30;;;1.73;;
11131;SDS011;5620;53.570;9.718;2022-12-07T08:19:51;3.57;;;1.60;;
11131;SDS011;5620;53.570;9.718;2022-12-07T08:22:17;6.25;;;1.45;;
11131;SDS011;5620;53.570;9.718;2022-12-07T08:24:43;2.83;;;1.13;;
11131;SDS011;5620;53.570;9.718;2022-12-07T08:27:09;6.97;;;1.33;;
11131;SDS011;5620;53.570;9.718;2022-12-07T08:29:35;2.83;;;1.70;;
11131;SDS011;5620;53.570;9.718;2022-12-07T08:32:02;4.75;;;1.42;;
11131;SDS011;5620;53.570;9.718;2022-12-07T08:34:32;5.15;;;1.83;;
11131;SDS011;5620;53.570;9.718;2022-12-07T08:37:00;6.63;;;1.50;;
11131;SDS011;5620;53.570;9.718;2022-12-07T08:39:29;2.47;;;1.55;;
11131;SDS011;5620;53.570;9.718;2022-12-07T08:41:56;2.90;;;1.67;;
11131;SDS011;5620;53.570;9.718;2022-12-07T08:44:22;3.17;;;1.90;;
11131;SDS011;5620;53.570;9.718;2022-12-07T08:46:54;3.22;;;1.85;;
11131;SDS011;5620;53.570;9.718;2022-12-07T08:49:41;3.58;;;2.40;;
11131;SDS011;5620;53.570;9.718;2022-12-07T08:52:14;1.55;;;1.15;;
11131;SDS011;5620;53.570;9.718;2022-12-07T08:54:41;1.50;;;1.37;;
11131;SDS011;5620;53.570;9.718;2022-12-07T08:57:07;2.95;;;1.27;;
11131;SDS011;5620;53.570;9.718;2022-12-07T08:59:35;1.05;;;1.00;;
11131;SDS011;5620;53.570;9.718;2022-12-07T09:02:04;1.98;;;1.02;;
11131;SDS011;5620;53.570;9.718;2022-12-07T09:04:32;3.17;;;1.88;;
11131;SDS011;5620;53.570;9.718;2022-12-07T09:06:58;4.03;;;2.57;;
11131;SDS011;5620;53.570;9.718;2022-12-07T09:09:24;4.75;;;1.40;;
11131;SDS011;5620;53.570;9.718;2022-12-07T09:11:51;6.68;;;2.63;;
11131;SDS011;5620;53.570;9.718;2022-12-07T09:14:18;2.47;;;1.40;;
11131;SDS011;5620;53.570;9.718;2022-12-07T09:16:43;3.60;;;1.40;;
11131;SDS011;5620;53.570;9.718;2022-12-07T09:19:09;1.83;;;0.95;;
11131;SDS011;5620;53.570;9.718;2022-12-07T09:21:37;1.70;;;1.60;;
11131;SDS011;5620;53.570;9.718;2022-12-07T09:24:04;4.72;;;1.50;;
11131;SDS011;5620;53.570;9.718;2022-12-07T09:26:30;1.47;;;1.37;;
11131;SDS011;5620;53.570;9.718;2022-12-07T09:28:55;3.22;;;1.90;;
11131;SDS011;5620;53.570;9.718;2022-12-07T09:31:21;2.97;;;1.23;;
11131;SDS011;5620;53.570;9.718;2022-12-07T09:33:46;10.33;;;2.37;;
11131;SDS011;5620;53.570;9.718;2022-12-07T09:36:17;3.00;;;1.10;;
11131;SDS011;5620;53.570;9.718;2022-12-07T09:38:44;2.85;;;1.25;;
11131;SDS011;5620;53.570;9.718;2022-12-07T09:41:10;1.92;;;1.60;;
11131;SDS011;5620;53.570;9.718;2022-12-07T09:43:36;2.23;;;1.47;;
11131;SDS011;5620;53.570;9.718;2022-12-07T09:46:06;1.17;;;1.00;;
11131;SDS011;5620;53.570;9.718;2022-12-07T09:48:38;3.10;;;1.23;;
11131;SDS011;5620;53.570;9.718;2022-12-07T09:51:39;2.67;;;1.40;;
11131;SDS011;5620;53.570;9.718;2022-12-07T09:53:59;1.63;;;1.05;;
11131;SDS011;5620;53.570;9.718;2022-12-07T09:56:28;7.25;;;2.33;;
11131;SDS011;5620;53.570;9.718;2022-12-07T09:59:00;8.30;;;3.72;;
11131;SDS011;5620;53.570;9.718;2022-12-07T10:01:28;9.25;;;2.33;;
11131;SDS011;5620;53.570;9.718;2022-12-07T10:04:16;3.53;;;1.47;;
11131;SDS011;5620;53.570;9.718;2022-12-07T10:06:47;1.58;;;0.80;;
11131;SDS011;5620;53.570;9.718;2022-12-07T10:09:15;2.90;;;1.92;;
11131;SDS011;5620;53.570;9.718;2022-12-07T10:14:32;5.53;;;1.95;;
11131;SDS011;5620;53.570;9.718;2022-12-07T10:20:23;4.18;;;2.80;;
11131;SDS011;5620;53.570;9.718;2022-12-07T10:23:05;1.20;;;1.10;;
11131;SDS011;5620;53.570;9.718;2022-12-07T10:25:38;1.17;;;1.00;;
11131;SDS011;5620;53.570;9.718;2022-12-07T10:28:16;3.70;;;2.15;;
11131;SDS011;5620;53.570;9.718;2022-12-07T10:30:48;2.30;;;1.43;;
11131;SDS011;5620;53.570;9.718;2022-12-07T10:36:27;1.13;;;1.02;;
11131;SDS011;5620;53.570;9.718;2022-12-07T10:39:11;7.43;;;2.10;;
11131;SDS011;5620;53.570;9.718;2022-12-07T10:41:58;1.85;;;1.63;;
11131;SDS011;5620;53.570;9.718;2022-12-07T10:44:26;1.87;;;0.97;;
11131;SDS011;5620;53.570;9.718;2022-12-07T11:01:18;3.83;;;1.13;;
11131;SDS011;5620;53.570;9.718;2022-12-07T11:07:48;3.10;;;1.63;;
11131;SDS011;5620;53.570;9.718;2022-12-07T11:13:00;3.77;;;1.47;;
11131;SDS011;5620;53.570;9.718;2022-12-07T11:15:50;3.10;;;1.98;;
11131;SDS011;5620;53.570;9.718;2022-12-07T11:18:54;4.10;;;1.60;;
11131;SDS011;5620;53.570;9.718;2022-12-07T11:24:41;5.95;;;2.35;;
11131;SDS011;5620;53.570;9.718;2022-12-07T11:33:32;2.28;;;1.52;;
11131;SDS011;5620;53.570;9.718;2022-12-07T11:39:31;3.42;;;1.42;;
11131;SDS011;5620;53.570;9.718;2022-12-07T11:42:16;8.77;;;2.40;;
11131;SDS011;5620;53.570;9.718;2022-12-07T11:47:58;6.80;;;1.60;;
11131;SDS011;5620;53.570;9.718;2022-12-07T11:50:46;5.78;;;1.50;;
11131;SDS011;5620;53.570;9.718;2022-12-07T11:53:26;8.15;;;1.50;;
11131;SDS011;5620;53.570;9.718;2022-12-07T11:56:14;3.03;;;1.13;;
11131;SDS011;5620;53.570;9.718;2022-12-07T12:07:31;3.33;;;1.15;;
11131;SDS011;5620;53.570;9.718;2022-12-07T12:10:05;2.23;;;0.90;;
11131;SDS011;5620;53.570;9.718;2022-12-07T12:21:47;7.97;;;1.42;;
11131;SDS011;5620;53.570;9.718;2022-12-07T12:24:22;2.10;;;1.10;;
11131;SDS011;5620;53.570;9.718;2022-12-07T12:27:02;2.92;;;1.42;;
11131;SDS011;5620;53.570;9.718;2022-12-07T12:29:35;4.40;;;1.45;;
11131;SDS011;5620;53.570;9.718;2022-12-07T12:32:14;4.68;;;0.80;;
11131;SDS011;5620;53.570;9.718;2022-12-07T12:35:00;7.85;;;1.38;;
11131;SDS011;5620;53.570;9.718;2022-12-07T12:43:39;5.88;;;1.33;;
11131;SDS011;5620;53.570;9.718;2022-12-07T12:49:33;7.07;;;1.83;;
11131;SDS011;5620;53.570;9.718;2022-12-07T12:57:35;3.40;;;0.95;;
11131;SDS011;5620;53.570;9.718;2022-12-07T13:02:50;3.00;;;1.80;;
11131;SDS011;5620;53.570;9.718;2022-12-07T13:05:20;4.20;;;1.10;;
11131;SDS011;5620;53.570;9.718;2022-12-07T13:07:57;5.43;;;2.15;;
11131;SDS011;5620;53.570;9.718;2022-12-07T13:21:02;6.05;;;2.08;;
11131;SDS011;5620;53.570;9.718;2022-12-07T13:31:49;5.57;;;2.20;;
11131;SDS011;5620;53.570;9.718;2022-12-07T13:39:59;1.92;;;1.80;;
11131;SDS011;5620;53.570;9.718;2022-12-07T13:51:33;11.10;;;2.85;;
11131;SDS011;5620;53.570;9.718;2022-12-07T13:54:08;7.47;;;2.25;;
11131;SDS011;5620;53.570;9.718;2022-12-07T13:56:37;11.52;;;4.40;;
11131;SDS011;5620;53.570;9.718;2022-12-07T13:59:05;5.40;;;1.57;;
11131;SDS011;5620;53.570;9.718;2022-12-07T14:01:39;3.55;;;2.47;;
11131;SDS011;5620;53.570;9.718;2022-12-07T14:13:34;1.63;;;1.43;;
11131;SDS011;5620;53.570;9.718;2022-12-07T14:16:04;7.55;;;2.45;;
11131;SDS011;5620;53.570;9.718;2022-12-07T14:18:51;6.18;;;2.40;;
11131;SDS011;5620;53.570;9.718;2022-12-07T14:21:22;2.40;;;1.60;;
11131;SDS011;5620;53.570;9.718;2022-12-07T14:24:10;5.13;;;1.60;;
11131;SDS011;5620;53.570;9.718;2022-12-07T14:26:39;12.37;;;2.40;;
11131;SDS011;5620;53.570;9.718;2022-12-07T14:29:22;7.55;;;1.77;;
11131;SDS011;5620;53.570;9.718;2022-12-07T14:32:15;5.78;;;2.00;;
11131;SDS011;5620;53.570;9.718;2022-12-07T14:37:32;4.90;;;1.85;;
11131;SDS011;5620;53.570;9.718;2022-12-07T14:39:59;6.93;;;3.90;;
11131;SDS011;5620;53.570;9.718;2022-12-07T14:42:29;10.15;;;1.88;;
11131;SDS011;5620;53.570;9.718;2022-12-07T14:44:58;3.45;;;2.88;;
11131;SDS011;5620;53.570;9.718;2022-12-07T14:47:25;11.05;;;3.10;;
11131;SDS011;5620;53.570;9.718;2022-12-07T14:49:54;3.75;;;2.60;;
11131;SDS011;5620;53.570;9.718;2022-12-07T14:52:22;7.83;;;3.27;;
11131;SDS011;5620;53.570;9.718;2022-12-07T14:54:53;3.92;;;1.40;;
11131;SDS011;5620;53.570;9.718;2022-12-07T14:57:22;4.75;;;1.60;;
11131;SDS011;5620;53.570;9.718;2022-12-07T14:59:48;4.35;;;2.42;;
11131;SDS011;5620;53.570;9.718;2022-12-07T15:02:16;3.20;;;1.98;;
11131;SDS011;5620;53.570;9.718;2022-12-07T15:04:42;5.40;;;1.55;;
11131;SDS011;5620;53.570;9.718;2022-12-07T15:07:12;4.13;;;2.03;;
11131;SDS011;5620;53.570;9.718;2022-12-07T15:09:44;5.18;;;1.92;;
11131;SDS011;5620;53.570;9.718;2022-12-07T15:12:11;7.93;;;1.67;;
11131;SDS011;5620;53.570;9.718;2022-12-07T15:14:37;5.43;;;2.53;;
11131;SDS011;5620;53.570;9.718;2022-12-07T15:17:04;5.00;;;3.03;;
11131;SDS011;5620;53.570;9.718;2022-12-07T15:19:30;9.57;;;4.43;;
11131;SDS011;5620;53.570;9.718;2022-12-07T15:21:57;8.00;;;4.37;;
11131;SDS011;5620;53.570;9.718;2022-12-07T15:24:23;5.10;;;3.38;;
11131;SDS011;5620;53.570;9.718;2022-12-07T15:26:50;5.97;;;4.10;;
11131;SDS011;5620;53.570;9.718;2022-12-07T15:29:16;8.85;;;3.25;;
11131;SDS011;5620;53.570;9.718;2022-12-07T15:31:44;8.67;;;3.83;;
11131;SDS011;5620;53.570;9.718;2022-12-07T15:34:15;10.68;;;5.30;;
11131;SDS011;5620;53.570;9.718;2022-12-07T15:36:42;6.00;;;2.85;;
11131;SDS011;5620;53.570;9.718;2022-12-07T15:39:08;5.35;;;2.42;;
11131;SDS011;5620;53.570;9.718;2022-12-07T15:41:35;6.82;;;3.40;;
11131;SDS011;5620;53.570;9.718;2022-12-07T15:44:01;13.07;;;4.13;;
11131;SDS011;5620;53.570;9.718;2022-12-07T15:46:46;11.77;;;3.25;;
11131;SDS011;5620;53.570;9.718;2022-12-07T15:49:15;7.45;;;3.13;;
11131;SDS011;5620;53.570;9.718;2022-12-07T15:51:43;3.85;;;2.45;;
11131;SDS011;5620;53.570;9.718;2022-12-07T15:54:16;8.67;;;2.67;;
11131;SDS011;5620;53.570;9.718;2022-12-07T15:56:47;2.88;;;2.05;;
11131;SDS011;5620;53.570;9.718;2022-12-07T15:59:13;7.88;;;1.75;;
11131;SDS011;5620;53.570;9.718;2022-12-07T16:01:41;5.18;;;2.10;;
11131;SDS011;5620;53.570;9.718;2022-12-07T16:04:08;3.85;;;1.85;;
11131;SDS011;5620;53.570;9.718;2022-12-07T16:06:36;3.93;;;1.90;;
11131;SDS011;5620;53.570;9.718;2022-12-07T16:09:03;3.35;;;2.85;;
11131;SDS011;5620;53.570;9.718;2022-12-07T16:11:29;7.28;;;2.15;;
11131;SDS011;5620;53.570;9.718;2022-12-07T16:13:58;6.07;;;2.92;;
11131;SDS011;5620;53.570;9.718;2022-12-07T16:16:25;7.93;;;3.92;;
11131;SDS011;5620;53.570;9.718;2022-12-07T16:18:50;5.60;;;3.10;;
11131;SDS011;5620;53.570;9.718;2022-12-07T16:21:16;5.07;;;2.67;;
11131;SDS011;5620;53.570;9.718;2022-12-07T16:23:43;4.43;;;3.50;;
11131;SDS011;5620;53.570;9.718;2022-12-07T16:26:15;4.27;;;3.37;;
11131;SDS011;5620;53.570;9.718;2022-12-07T16:28:44;6.93;;;3.75;;
11131;SDS011;5620;53.570;9.718;2022-12-07T16:31:14;7.78;;;2.60;;
11131;SDS011;5620;53.570;9.718;2022-12-07T16:33:42;5.88;;;2.75;;
11131;SDS011;5620;53.570;9.718;2022-12-07T16:36:10;4.70;;;2.72;;
11131;SDS011;5620;53.570;9.718;2022-12-07T16:38:37;4.43;;;3.07;;
11131;SDS011;5620;53.570;9.718;2022-12-07T16:41:06;3.65;;;2.60;;
11131;SDS011;5620;53.570;9.718;2022-12-07T16:43:36;5.10;;;2.60;;
11131;SDS011;5620;53.570;9.718;2022-12-07T16:46:03;4.88;;;2.63;;
11131;SDS011;5620;53.570;9.718;2022-12-07T16:48:30;8.40;;;2.97;;
11131;SDS011;5620;53.570;9.718;2022-12-07T16:51:10;5.50;;;3.13;;
11131;SDS011;5620;53.570;9.718;2022-12-07T16:53:40;5.22;;;3.78;;
11131;SDS011;5620;53.570;9.718;2022-12-07T16:56:15;6.25;;;4.05;;
11131;SDS011;5620;53.570;9.718;2022-12-07T16:58:41;12.45;;;5.18;;
11131;SDS011;5620;53.570;9.718;2022-12-07T17:01:11;7.72;;;5.13;;
11131;SDS011;5620;53.570;9.718;2022-12-07T17:03:38;8.17;;;4.93;;
11131;SDS011;5620;53.570;9.718;2022-12-07T17:06:15;12.60;;;5.57;;
11131;SDS011;5620;53.570;9.718;2022-12-07T17:08:42;8.40;;;4.80;;
11131;SDS011;5620;53.570;9.718;2022-12-07T17:11:14;12.27;;;5.63;;
11131;SDS011;5620;53.570;9.718;2022-12-07T17:13:43;10.63;;;5.70;;
11131;SDS011;5620;53.570;9.718;2022-12-07T17:16:10;8.07;;;5.80;;
11131;SDS011;5620;53.570;9.718;2022-12-07T17:18:36;9.63;;;5.75;;
11131;SDS011;5620;53.570;9.718;2022-12-07T17:21:03;12.18;;;5.55;;
11131;SDS011;5620;53.570;9.718;2022-12-07T17:23:32;9.53;;;6.20;;
11131;SDS011;5620;53.570;9.718;2022-12-07T17:26:08;9.88;;;6.13;;
11131;SDS011;5620;53.570;9.718;2022-12-07T17:28:35;13.70;;;6.93;;
11131;SDS011;5620;53.570;9.718;2022-12-07T17:31:07;10.88;;;6.88;;
11131;SDS011;5620;53.570;9.718;2022-12-07T17:33:35;9.25;;;6.63;;
11131;SDS011;5620;53.570;9.718;2022-12-07T17:36:01;6.43;;;5.43;;
11131;SDS011;5620;53.570;9.718;2022-12-07T17:38:42;8.43;;;4.05;;
11131;SDS011;5620;53.570;9.718;2022-12-07T17:41:14;11.23;;;5.65;;
11131;SDS011;5620;53.570;9.718;2022-12-07T17:43:41;5.80;;;4.20;;
11131;SDS011;5620;53.570;9.718;2022-12-07T17:46:10;13.20;;;5.27;;
11131;SDS011;5620;53.570;9.718;2022-12-07T17:48:36;19.88;;;10.70;;
11131;SDS011;5620;53.570;9.718;2022-12-07T17:51:03;6.45;;;4.95;;
11131;SDS011;5620;53.570;9.718;2022-12-07T17:53:29;5.22;;;4.43;;
11131;SDS011;5620;53.570;9.718;2022-12-07T17:55:55;5.37;;;3.60;;
11131;SDS011;5620;53.570;9.718;2022-12-07T17:58:21;5.07;;;3.17;;
11131;SDS011;5620;53.570;9.718;2022-12-07T18:00:48;3.87;;;3.47;;
11131;SDS011;5620;53.570;9.718;2022-12-07T18:03:13;6.07;;;3.25;;
11131;SDS011;5620;53.570;9.718;2022-12-07T18:05:41;5.53;;;2.67;;
11131;SDS011;5620;53.570;9.718;2022-12-07T18:08:09;7.82;;;3.20;;
11131;SDS011;5620;53.570;9.718;2022-12-07T18:10:36;4.97;;;3.45;;
11131;SDS011;5620;53.570;9.718;2022-12-07T18:13:08;6.03;;;4.07;;
11131;SDS011;5620;53.570;9.718;2022-12-07T18:15:34;11.23;;;6.07;;
11131;SDS011;5620;53.570;9.718;2022-12-07T18:18:01;5.97;;;2.53;;
11131;SDS011;5620;53.570;9.718;2022-12-07T18:20:28;2.23;;;1.97;;